• Join FlightAware (Why Join?)
  • Login
  • US Flag 
11:48PM EDT


 

Airport Tracker/Info


-or-


 

Live Flight TrackerFlight Track Log ✈ DAL2389 ✈ 07-May-2013 ✈ KMSP - KIND

Flight Track Log - Related Links

Times and Time Zones

All times are in EDT time to prevent confusion due to time zone crossing. See the DAL2389 flight status page for this flight to view local times or setup timezone preferences in your user account.

Time Position Orientation Groundspeed Altitude Reporting Facility
EDT Latitude Longitude Course Direction KTS MPH feet Rate Location/Type
08:42PM 44.8225 -93.2233 120° Southeast 159 183 2,900  Level Minneapolis Center
08:43PM 44.7689 -93.1564 138° Southeast 254 292 5,300 2,760 Climbing Minneapolis Center
08:44PM 44.6509 -92.8724 141° Southeast  Level Estimated
08:44PM 44.7192 -93.0706 129° Southeast 277 319 8,700  Level Minneapolis Center
08:45PM 44.5737 -92.7566 137° Southeast  Level Estimated
08:45PM 44.6653 -92.9817 130° Southeast 297 342 11,400  Level Minneapolis Center
08:46PM 44.4963 -92.6411 133° Southeast  Level Estimated
08:46PM 44.6167 -92.9011 130° Southeast 331 381 12,900  Level Minneapolis Center
08:47PM 44.4188 -92.5259 120° Southeast  Level Estimated
08:47PM 44.5344 -92.7644 130° Southeast 383 441 15,700  Level Minneapolis Center
08:48PM 44.4478 -92.6233 131° Southeast 396 456 18,700 2,220 Climbing Minneapolis Center
08:49PM 44.3756 -92.5042 130° Southeast 400 460 20,300 1,620 Climbing Minneapolis Center
08:51PM 44.3058 -92.3700 126° Southeast 422 486 22,400 1,740 Climbing Minneapolis Center
08:52PM 44.2306 -92.1925 121° Southeast 441 507 24,300 1,980 Climbing Minneapolis Center
08:53PM 44.1667 -92.0453 121° Southeast 445 512 26,600 1,500 Climbing Minneapolis Center
08:54PM 44.0700 -91.8828 130° Southeast 450 518 27,400 1,080 Climbing Minneapolis Center
08:55PM 43.9781 -91.7528 134° Southeast 467 537 28,900 1,320 Climbing Minneapolis Center
08:56PM 43.8889 -91.6217 133° Southeast 473 544 30,200 1,680 Climbing Minneapolis Center
08:57PM 43.8017 -91.4875 132° Southeast 473 544 32,400 1,320 Climbing Minneapolis Center
08:58PM 43.7175 -91.3625 133° Southeast 461 531 33,000 240 Climbing Minneapolis Center
08:59PM 43.6350 -91.2428 134° Southeast 445 512 33,000  Level Minneapolis Center
09:00PM 43.5339 -91.0925 133° Southeast 446 513 33,000  Level Minneapolis Center
09:01PM 43.4486 -90.9686 133° Southeast 448 516 33,000  Level Minneapolis Center
09:02PM 43.3633 -90.8444 133° Southeast 448 516 33,000  Level Minneapolis Center
09:03PM 43.2783 -90.7217 134° Southeast 446 513 33,000  Level Minneapolis Center
09:04PM 43.1767 -90.5753 134° Southeast 445 512 33,000  Level Minneapolis Center
09:05PM 43.1442 -90.5283 133° Southeast 443 510 33,000  Level Chicago Center
09:06PM 43.0611 -90.4075 133° Southeast 439 505 33,000  Level Chicago Center
09:07PM 42.9778 -90.2897 134° Southeast 435 501 33,000  Level Chicago Center
09:08PM 42.8789 -90.1469 133° Southeast 434 499 33,000  Level Chicago Center
09:09PM 42.7944 -90.0292 134° Southeast 437 503 33,000  Level Chicago Center
09:10PM 42.7111 -89.9128 134° Southeast 434 499 33,000  Level Chicago Center
09:11PM 42.6153 -89.7781 134° Southeast 436 502 33,000  Level Chicago Center
09:12PM 42.5306 -89.6597 134° Southeast 437 503 33,000  Level Chicago Center
09:13PM 42.4456 -89.5419 134° Southeast 438 504 33,000  Level Chicago Center
09:14PM 42.3606 -89.4250 135° Southeast 438 504 33,000  Level Chicago Center
09:15PM 42.2756 -89.3069 134° Southeast 439 505 33,000  Level Chicago Center
09:16PM 42.1761 -89.1678 134° Southeast 440 506 33,000  Level Chicago Center
09:17PM 42.0903 -89.0525 135° Southeast 438 504 33,000  Level Chicago Center
09:18PM 42.0094 -88.9422 135° Southeast 440 506 33,000  Level Chicago Center
09:19PM 41.9244 -88.8258 134° Southeast 440 506 33,000  Level Chicago Center
09:20PM 41.8225 -88.6869 135° Southeast 438 504 33,000  Level Chicago Center
09:21PM 41.7364 -88.5717 135° Southeast 440 506 33,000 -300 Level Chicago Center
09:22PM 41.6494 -88.4558 135° Southeast 443 510 32,500 -720 Descending Chicago Center
09:23PM 41.5617 -88.3411 136° Southeast 446 513 31,600 -960 Descending Chicago Center
09:24PM 41.4600 -88.2503 146° Southeast 448 516 30,600 -1,080 Descending Chicago Center
09:25PM 41.3342 -88.1500 149° Southeast 455 524 29,400 -840 Descending Chicago Center
09:26PM 41.2267 -88.0644 149° Southeast 462 532 29,000 -240 Descending Chicago Center
09:27PM 41.1183 -87.9772 149° Southeast 461 531 29,000  Level Chicago Center
09:28PM 41.0189 -87.8753 142° Southeast 459 528 29,000 -60 Level Chicago Center
09:29PM 40.9253 -87.7625 138° Southeast 459 528 28,900 -600 Descending Chicago Center
09:30PM 40.8139 -87.6286 138° Southeast 455 524 27,800 -1,020 Descending Chicago Center
09:31PM 40.7217 -87.5211 139° Southeast 448 516 26,800 -1,080 Descending Chicago Center
09:32PM 40.6308 -87.4158 139° Southeast 440 506 25,600 -1,320 Descending Chicago Center
09:33PM 40.5414 -87.3122 139° Southeast 433 498 24,200 -1,920 Descending Chicago Center
09:34PM 40.4419 -87.1975 139° Southeast 428 493 21,700 -2,520 Descending Chicago Center
09:35PM 40.3589 -87.0994 138° Southeast 407 468 19,100 -2,580 Descending Chicago Center
09:37PM 40.2767 -87.0056 139° Southeast 395 455 16,500 -2,520 Descending Chicago Center
09:38PM 40.1981 -86.9133 138° Southeast 384 442 14,000 -1,920 Descending Chicago Center
09:39PM 40.1269 -86.8217 135° Southeast 366 421 12,600 -1,860 Descending Chicago Center
09:40PM 40.0422 -86.7597 151° Southeast 358 412 10,300 -1,320 Descending Chicago Center
09:41PM 39.9508 -86.7128 159° South 357 411 10,000 -720 Descending Chicago Center
09:42PM 39.8567 -86.6656 159° South 303 349 8,900 -1,380 Descending Chicago Center
09:43PM 39.7833 -86.6333 161° South 286 329 7,400 -2,220 Descending Indianapolis TRACON
09:43PM 39.7333 -86.5667 134° Southeast 278 320 5,000 -2,340 Descending Indianapolis TRACON
09:44PM 39.7244 -86.5583 144° Southeast 279 321 4,600 -1,440 Descending Indianapolis Center
09:45PM 39.6706 -86.4986 140° Southeast 269 310 3,100 -840 Descending Indianapolis Center
09:46PM 39.6222 -86.4436 139° Southeast 216 249 3,000 -120 Descending Indianapolis Center